createdAt,value
2022-10-17T00:02:25.353Z,100575.16
2022-10-17T00:04:54.060Z,100580.34
2022-10-17T00:07:22.552Z,100579.41
2022-10-17T00:09:52.828Z,100581.13
2022-10-17T00:12:21.248Z,100575.00
2022-10-17T00:14:49.929Z,100568.78
2022-10-17T00:17:18.360Z,100573.97
2022-10-17T00:19:46.987Z,100577.38
2022-10-17T00:22:15.511Z,100574.72
2022-10-17T00:24:44.211Z,100584.41
2022-10-17T00:27:14.009Z,100583.50
2022-10-17T00:29:42.871Z,100582.72
2022-10-17T00:32:11.278Z,100586.28
2022-10-17T00:34:40.196Z,100581.88
2022-10-17T00:37:08.875Z,100588.81
2022-10-17T00:39:37.501Z,100589.00
2022-10-17T00:42:06.117Z,100576.63
2022-10-17T00:45:01.355Z,100580.16
2022-10-17T00:47:31.037Z,100580.16
2022-10-17T00:52:34.773Z,100581.00
2022-10-17T00:55:12.898Z,100585.28
2022-10-17T00:57:42.579Z,100584.41
2022-10-17T01:00:15.693Z,100581.88
2022-10-17T01:02:44.867Z,100583.59
2022-10-17T01:05:14.167Z,100575.72
2022-10-17T01:07:45.641Z,100573.97
2022-10-17T01:10:15.329Z,100566.91
2022-10-17T01:12:56.561Z,100567.72
2022-10-17T01:15:39.796Z,100568.66
2022-10-17T01:18:21.056Z,100576.53
2022-10-17T01:21:17.897Z,100565.94
2022-10-17T01:23:55.584Z,100571.31
2022-10-17T01:26:29.009Z,100575.81
2022-10-17T01:29:23.156Z,100569.63
2022-10-17T01:32:00.641Z,100577.53
2022-10-17T01:34:36.080Z,100580.31
2022-10-17T01:37:15.146Z,100582.06
2022-10-17T01:39:48.070Z,100577.56
2022-10-17T01:42:23.490Z,100581.97
2022-10-17T01:44:59.984Z,100580.25
2022-10-17T01:47:33.889Z,100581.13
2022-10-17T01:50:08.383Z,100577.66
2022-10-17T01:52:43.405Z,100578.63
2022-10-17T01:55:17.961Z,100584.78
2022-10-17T01:57:51.696Z,100576.03
2022-10-17T02:00:23.933Z,100581.50
2022-10-17T02:02:59.393Z,100585.91
2022-10-17T02:05:33.596Z,100579.88
2022-10-17T02:08:02.320Z,100579.72
2022-10-17T02:10:37.818Z,100578.88
2022-10-17T02:13:16.677Z,100586.75
2022-10-17T02:16:00.392Z,100583.19
2022-10-17T02:18:54.403Z,100587.59
2022-10-17T02:21:33.002Z,100586.69
2022-10-17T02:24:08.879Z,100594.66
2022-10-17T02:26:44.501Z,100596.34
2022-10-17T02:29:19.101Z,100600.72
2022-10-17T02:31:51.217Z,100602.47
2022-10-17T02:34:27.588Z,100602.47
2022-10-17T02:37:00.291Z,100609.53
2022-10-17T02:39:31.257Z,100610.53
2022-10-17T02:42:05.403Z,100604.41
2022-10-17T02:44:35.325Z,100608.88
2022-10-17T02:47:10.321Z,100611.47
2022-10-17T02:49:45.618Z,100607.16
2022-10-17T02:52:22.416Z,100614.13
2022-10-17T02:54:55.966Z,100610.66
2022-10-17T02:57:32.339Z,100612.44
2022-10-17T03:00:04.932Z,100611.50
2022-10-17T03:02:41.569Z,100609.72
2022-10-17T03:05:15.172Z,100610.72
2022-10-17T03:07:43.570Z,100613.28
2022-10-17T03:10:12.991Z,100619.47
2022-10-17T03:12:41.469Z,100622.09
2022-10-17T03:15:12.808Z,100627.34
2022-10-17T03:17:42.395Z,100615.91
2022-10-17T03:20:13.499Z,100628.22
2022-10-17T03:22:42.067Z,100620.31
2022-10-17T03:25:12.020Z,100623.81
2022-10-17T03:27:40.543Z,100626.41
2022-10-17T03:30:11.538Z,100634.41
2022-10-17T03:32:40.401Z,100621.25
2022-10-17T03:35:13.983Z,100633.56
2022-10-17T03:37:48.595Z,100632.63
2022-10-17T03:40:18.632Z,100632.75
2022-10-17T03:42:47.012Z,100638.00
2022-10-17T03:45:16.251Z,100635.31
2022-10-17T03:47:46.217Z,100630.06
2022-10-17T03:50:15.346Z,100632.63
2022-10-17T03:52:49.368Z,100627.41
2022-10-17T03:55:18.611Z,100639.69
2022-10-17T03:57:47.268Z,100638.81
2022-10-17T04:00:18.410Z,100644.09
2022-10-17T04:02:55.083Z,100636.25
2022-10-17T04:05:24.818Z,100634.50
2022-10-17T04:07:54.781Z,100642.41
2022-10-17T04:10:32.001Z,100640.69
2022-10-17T04:13:00.559Z,100646.81
2022-10-17T04:15:29.384Z,100656.56
2022-10-17T04:17:57.915Z,100656.59
2022-10-17T04:20:26.963Z,100660.03
2022-10-17T04:22:56.919Z,100662.72
2022-10-17T04:25:25.750Z,100661.00
2022-10-17T04:27:54.237Z,100658.34
2022-10-17T04:30:23.059Z,100663.59
2022-10-17T04:32:52.283Z,100664.44
2022-10-17T04:35:23.670Z,100665.41
2022-10-17T04:38:01.096Z,100666.28
2022-10-17T04:40:29.842Z,100676.81
2022-10-17T04:42:58.407Z,100681.22
2022-10-17T04:45:34.715Z,100681.19
2022-10-17T04:48:05.891Z,100678.63
2022-10-17T04:50:34.564Z,100676.84
2022-10-17T04:53:35.476Z,100678.59
2022-10-17T04:56:10.380Z,100675.91
2022-10-17T04:58:40.473Z,100687.31
2022-10-17T05:01:11.520Z,100691.72
2022-10-17T05:03:42.728Z,100686.50
2022-10-17T05:06:13.346Z,100689.97
2022-10-17T05:08:46.436Z,100690.81
2022-10-17T05:11:20.584Z,100689.97
2022-10-17T05:13:52.576Z,100695.22
2022-10-17T05:16:22.537Z,100694.34
2022-10-17T05:18:53.027Z,100694.28
2022-10-17T05:21:24.401Z,100703.13
2022-10-17T05:23:56.646Z,100706.59
2022-10-17T05:26:26.687Z,100697.78
2022-10-17T05:28:55.402Z,100689.84
2022-10-17T05:31:26.942Z,100706.50
2022-10-17T05:33:55.339Z,100713.44
2022-10-17T05:36:24.580Z,100720.38
2022-10-17T05:38:54.972Z,100714.19
2022-10-17T05:41:24.392Z,100709.84
2022-10-17T05:43:52.826Z,100715.06
2022-10-17T05:46:30.804Z,100730.81
2022-10-17T05:48:59.244Z,100722.84
2022-10-17T05:51:28.134Z,100731.56
2022-10-17T05:53:59.735Z,100721.88
2022-10-17T05:56:29.934Z,100728.06
2022-10-17T05:59:01.055Z,100728.97
2022-10-17T06:01:50.711Z,100729.91
2022-10-17T06:04:19.431Z,100739.47
2022-10-17T06:06:48.209Z,100739.44
2022-10-17T06:09:18.240Z,100748.16
2022-10-17T06:11:50.157Z,100751.63
2022-10-17T06:14:18.924Z,100756.84
2022-10-17T06:16:49.730Z,100752.38
2022-10-17T06:19:18.523Z,100759.44
2022-10-17T06:21:48.610Z,100764.66
2022-10-17T06:24:23.487Z,100760.97
2022-10-17T06:26:54.360Z,100755.63
2022-10-17T06:29:24.183Z,100769.69
2022-10-17T06:31:54.115Z,100754.72
2022-10-17T06:34:22.806Z,100763.41
2022-10-17T06:36:51.901Z,100766.88
2022-10-17T06:39:21.078Z,100770.44
2022-10-17T06:42:06.319Z,100768.66
2022-10-17T06:44:57.536Z,100774.84
2022-10-17T06:47:55.835Z,100775.78
2022-10-17T06:50:45.108Z,100777.44
2022-10-17T06:53:25.975Z,100787.13
2022-10-17T06:56:12.576Z,100792.31
2022-10-17T06:59:09.899Z,100793.09
2022-10-17T07:01:41.875Z,100787.81
2022-10-17T07:04:14.845Z,100793.88
2022-10-17T07:06:43.494Z,100791.13
2022-10-17T07:09:18.155Z,100795.56
2022-10-17T07:11:47.018Z,100794.69
2022-10-17T07:14:20.952Z,100810.38
2022-10-17T07:16:50.343Z,100805.03
2022-10-17T07:19:25.595Z,100800.56
2022-10-17T07:21:54.196Z,100797.94
2022-10-17T07:24:23.509Z,100803.22
2022-10-17T07:26:58.183Z,100807.53
2022-10-17T07:29:28.814Z,100810.84
2022-10-17T07:32:08.665Z,100802.91
2022-10-17T07:34:37.676Z,100809.81
2022-10-17T07:37:09.961Z,100800.09
2022-10-17T07:39:41.147Z,100799.88
2022-10-17T07:42:12.034Z,100805.88
2022-10-17T07:44:42.205Z,100804.88
2022-10-17T07:47:11.682Z,100805.84
2022-10-17T07:49:42.741Z,100812.69
2022-10-17T07:52:11.692Z,100810.09
2022-10-17T07:54:40.559Z,100808.38
2022-10-17T07:57:09.259Z,100810.53
2022-10-17T07:59:39.465Z,100806.00
2022-10-17T08:02:15.328Z,100801.31
2022-10-17T08:04:44.108Z,100807.69
2022-10-17T08:07:21.739Z,100812.72
2022-10-17T08:09:52.093Z,100812.72
2022-10-17T08:12:20.618Z,100810.63
2022-10-17T08:14:50.746Z,100806.03
2022-10-17T08:17:20.643Z,100799.03
2022-10-17T08:19:49.653Z,100808.06
2022-10-17T08:22:18.067Z,100808.69
2022-10-17T08:24:47.314Z,100812.28
2022-10-17T08:27:21.396Z,100816.66
2022-10-17T08:29:52.871Z,100820.00
2022-10-17T08:32:25.055Z,100820.66
2022-10-17T08:34:54.108Z,100819.66
2022-10-17T08:37:22.504Z,100823.25
2022-10-17T08:39:51.135Z,100823.94
2022-10-17T08:42:35.683Z,100821.81
2022-10-17T08:45:14.707Z,100826.25
2022-10-17T08:47:48.543Z,100830.84
2022-10-17T08:50:32.164Z,100829.38
2022-10-17T08:53:07.193Z,100823.06
2022-10-17T08:55:42.799Z,100829.13
2022-10-17T08:58:15.892Z,100839.63
2022-10-17T09:00:50.552Z,100828.84
2022-10-17T09:03:33.919Z,100824.47
2022-10-17T09:06:16.202Z,100831.63
2022-10-17T09:08:54.344Z,100832.59
2022-10-17T09:11:41.957Z,100829.50
2022-10-17T09:14:29.549Z,100823.75
2022-10-17T09:17:12.422Z,100833.44
2022-10-17T09:19:50.249Z,100833.41
2022-10-17T09:22:24.460Z,100828.56
2022-10-17T09:24:58.471Z,100836.06
2022-10-17T09:27:34.825Z,100832.47
2022-10-17T09:30:40.452Z,100829.16
2022-10-17T09:33:23.335Z,100834.38
2022-10-17T09:36:05.519Z,100835.16
2022-10-17T09:38:41.597Z,100829.44
2022-10-17T09:44:26.246Z,100833.91
2022-10-17T09:47:16.597Z,100837.41
2022-10-17T09:49:47.271Z,100837.00
2022-10-17T09:52:19.969Z,100840.47
2022-10-17T09:54:51.589Z,100841.22
2022-10-17T09:57:21.825Z,100850.16
2022-10-17T09:59:59.411Z,100842.97
2022-10-17T10:02:30.026Z,100843.72
2022-10-17T10:05:04.619Z,100853.44
2022-10-17T10:07:38.700Z,100847.75
2022-10-17T10:10:23.938Z,100841.19
2022-10-17T10:13:05.785Z,100843.47
2022-10-17T10:15:37.897Z,100840.94
2022-10-17T10:21:09.080Z,100841.97
2022-10-17T10:23:41.163Z,100840.03
2022-10-17T10:26:23.552Z,100836.97
2022-10-17T10:29:00.075Z,100835.97
2022-10-17T10:31:32.874Z,100824.56
2022-10-17T10:34:04.185Z,100833.38
2022-10-17T10:36:56.389Z,100832.88
2022-10-17T10:39:35.925Z,100838.63
2022-10-17T10:42:08.697Z,100830.84
2022-10-17T10:44:42.108Z,100829.03
2022-10-17T10:47:21.791Z,100830.28
2022-10-17T10:49:53.864Z,100815.75
2022-10-17T10:52:39.105Z,100820.19
2022-10-17T10:55:19.387Z,100818.53
2022-10-17T10:57:50.378Z,100817.78
2022-10-17T11:00:24.319Z,100812.81
2022-10-17T11:03:01.918Z,100825.75
2022-10-17T11:05:46.727Z,100813.13
2022-10-17T11:08:23.976Z,100805.75
2022-10-17T11:11:09.148Z,100811.56
2022-10-17T11:13:44.471Z,100812.69
2022-10-17T11:16:29.138Z,100815.66
2022-10-17T11:19:05.177Z,100807.28
2022-10-17T11:24:22.860Z,100800.13
2022-10-17T11:26:57.381Z,100800.50
2022-10-17T11:29:29.812Z,100799.25
2022-10-17T11:32:02.396Z,100795.50
2022-10-17T11:34:36.638Z,100787.91
2022-10-17T11:37:10.925Z,100786.78
2022-10-17T11:39:48.639Z,100786.50
2022-10-17T11:42:24.698Z,100789.16
2022-10-17T11:45:00.458Z,100787.69
2022-10-17T11:47:35.823Z,100782.69
2022-10-17T11:53:02.802Z,100784.63
2022-10-17T11:55:34.327Z,100788.88
2022-10-17T11:58:24.574Z,100787.56
2022-10-17T12:01:01.733Z,100788.19
2022-10-17T12:03:41.318Z,100776.03
2022-10-17T12:06:17.649Z,100778.22
2022-10-17T12:08:55.086Z,100779.28
2022-10-17T12:11:35.814Z,100780.06
2022-10-17T12:14:37.150Z,100779.31
2022-10-17T12:17:21.929Z,100775.16
2022-10-17T12:19:50.444Z,100780.75
2022-10-17T12:22:22.648Z,100774.19
2022-10-17T12:24:57.566Z,100783.31
2022-10-17T12:27:39.631Z,100770.50
2022-10-17T12:30:19.185Z,100767.03
2022-10-17T12:33:07.999Z,100773.59
2022-10-17T12:35:38.557Z,100771.78
2022-10-17T12:38:26.278Z,100767.03
2022-10-17T12:40:57.788Z,100760.56
2022-10-17T12:43:53.951Z,100767.97
2022-10-17T12:46:56.654Z,100766.22
2022-10-17T12:49:51.191Z,100758.41
2022-10-17T12:52:26.948Z,100758.41
2022-10-17T12:55:10.827Z,100761.81
2022-10-17T12:57:49.763Z,100754.84
2022-10-17T13:00:24.155Z,100752.94
2022-10-17T13:02:57.202Z,100748.38
2022-10-17T13:05:30.523Z,100749.03
2022-10-17T13:08:02.115Z,100746.63
2022-10-17T13:10:35.096Z,100756.75
2022-10-17T13:13:14.039Z,100762.03
2022-10-17T13:15:47.650Z,100755.22
2022-10-17T13:18:22.803Z,100748.19
2022-10-17T13:20:59.881Z,100742.56
2022-10-17T13:23:33.106Z,100752.13
2022-10-17T13:26:15.064Z,100747.88
2022-10-17T13:28:44.489Z,100749.22
2022-10-17T13:31:30.025Z,100744.38
2022-10-17T13:34:01.832Z,100743.53
2022-10-17T13:36:32.115Z,100746.94
2022-10-17T13:39:07.640Z,100739.66
2022-10-17T13:41:38.374Z,100742.22
2022-10-17T13:44:14.399Z,100746.03
2022-10-17T13:46:44.173Z,100739.56
2022-10-17T13:49:23.191Z,100733.81
2022-10-17T13:51:56.327Z,100743.47
2022-10-17T13:54:36.386Z,100742.56
2022-10-17T13:57:06.457Z,100743.84
2022-10-17T13:59:40.059Z,100747.22
2022-10-17T14:02:16.573Z,100743.25
2022-10-17T14:05:15.606Z,100738.75
2022-10-17T14:08:09.386Z,100748.13
2022-10-17T14:10:34.272Z,100748.81
2022-10-17T14:13:04.762Z,100744.75
2022-10-17T14:15:36.222Z,100745.09
2022-10-17T14:18:09.519Z,100747.56
2022-10-17T14:21:19.828Z,100751.47
2022-10-17T14:23:37.856Z,100746.47
2022-10-17T14:26:09.616Z,100746.81
2022-10-17T14:28:39.892Z,100752.28
2022-10-17T14:31:25.700Z,100744.81
2022-10-17T14:33:55.927Z,100746.25
2022-10-17T14:36:40.000Z,100734.25
2022-10-17T14:39:19.650Z,100737.81
2022-10-17T14:41:49.287Z,100741.09
2022-10-17T14:44:24.047Z,100740.72
2022-10-17T14:46:56.773Z,100735.44
2022-10-17T14:49:32.485Z,100740.06
2022-10-17T14:52:31.672Z,100737.84
2022-10-17T14:55:13.379Z,100734.50
2022-10-17T14:57:46.905Z,100731.06
2022-10-17T15:00:17.114Z,100732.06
2022-10-17T15:02:46.465Z,100730.22
2022-10-17T15:05:16.395Z,100739.19
2022-10-17T15:07:46.247Z,100735.00
2022-10-17T15:10:26.413Z,100738.31
2022-10-17T15:12:59.936Z,100736.25
2022-10-17T15:15:33.942Z,100739.50
2022-10-17T15:18:02.856Z,100738.81
2022-10-17T15:20:31.885Z,100741.41
2022-10-17T15:23:03.224Z,100733.59
2022-10-17T15:25:34.293Z,100734.06
2022-10-17T15:28:02.734Z,100732.13
2022-10-17T15:30:33.654Z,100728.97
2022-10-17T15:33:02.952Z,100731.41
2022-10-17T15:35:32.156Z,100732.47
2022-10-17T15:38:02.401Z,100736.00
2022-10-17T15:40:31.298Z,100731.28
2022-10-17T15:42:59.686Z,100740.66
2022-10-17T15:45:28.516Z,100737.47
2022-10-17T15:48:01.738Z,100744.22
2022-10-17T15:50:30.717Z,100736.00
2022-10-17T15:53:00.009Z,100736.91
2022-10-17T15:55:31.950Z,100746.78
2022-10-17T15:58:00.345Z,100747.78
2022-10-17T16:00:29.294Z,100748.63
2022-10-17T16:02:57.941Z,100748.78
2022-10-17T16:05:28.513Z,100751.25
2022-10-17T16:07:58.017Z,100754.41
2022-10-17T16:10:27.192Z,100758.28
2022-10-17T16:12:57.260Z,100758.09
2022-10-17T16:15:28.021Z,100754.56
2022-10-17T16:18:00.566Z,100763.41
2022-10-17T16:20:32.099Z,100767.88
2022-10-17T16:23:03.047Z,100766.16
2022-10-17T16:25:33.168Z,100764.84
2022-10-17T16:28:04.212Z,100765.63
2022-10-17T16:30:33.988Z,100762.56
2022-10-17T16:33:02.368Z,100767.97
2022-10-17T16:35:36.497Z,100767.28
2022-10-17T16:38:07.268Z,100770.63
2022-10-17T16:40:40.032Z,100772.59
2022-10-17T16:43:12.367Z,100770.81
2022-10-17T16:45:41.368Z,100773.66
2022-10-17T16:48:10.825Z,100780.09
2022-10-17T16:50:41.052Z,100781.00
2022-10-17T16:53:09.885Z,100781.03
2022-10-17T16:55:39.566Z,100783.91
2022-10-17T16:58:09.312Z,100784.88
2022-10-17T17:00:40.071Z,100790.22
2022-10-17T17:03:08.558Z,100787.69
2022-10-17T17:05:37.170Z,100795.63
2022-10-17T17:08:09.086Z,100787.75
2022-10-17T17:10:45.750Z,100793.81
2022-10-17T17:13:15.758Z,100790.38
2022-10-17T17:18:15.450Z,100800.16
2022-10-17T17:20:44.108Z,100802.94
2022-10-17T17:23:15.702Z,100795.91
2022-10-17T17:25:45.304Z,100800.50
2022-10-17T17:28:15.136Z,100798.84
2022-10-17T17:30:44.009Z,100790.94
2022-10-17T17:33:12.412Z,100801.59
2022-10-17T17:35:41.216Z,100802.50
2022-10-17T17:38:09.730Z,100795.63
2022-10-17T17:40:38.494Z,100793.91
2022-10-17T17:43:06.869Z,100793.19
2022-10-17T17:45:37.289Z,100807.28
2022-10-17T17:48:05.869Z,100802.06
2022-10-17T17:50:37.702Z,100801.31
2022-10-17T17:53:07.535Z,100806.69
2022-10-17T17:55:37.189Z,100805.88
2022-10-17T17:58:06.299Z,100809.59
2022-10-17T18:00:37.383Z,100801.78
2022-10-17T18:03:05.886Z,100806.22
2022-10-17T18:05:35.003Z,100805.53
2022-10-17T18:08:05.187Z,100802.16
2022-10-17T18:10:33.838Z,100805.88
2022-10-17T18:13:02.290Z,100810.34
2022-10-17T18:15:31.273Z,100806.16
2022-10-17T18:18:01.228Z,100812.47
2022-10-17T18:20:30.045Z,100809.00
2022-10-17T18:23:00.614Z,100809.88
2022-10-17T18:25:32.223Z,100812.56
2022-10-17T18:28:00.550Z,100816.19
2022-10-17T18:30:32.290Z,100819.69
2022-10-17T18:33:04.348Z,100814.41
2022-10-17T18:35:33.267Z,100814.56
2022-10-17T18:38:01.776Z,100818.19
2022-10-17T18:40:30.551Z,100827.06
2022-10-17T18:42:59.382Z,100817.34
2022-10-17T18:45:28.389Z,100824.41
2022-10-17T18:47:57.014Z,100823.47
2022-10-17T18:50:27.470Z,100820.94
2022-10-17T18:52:55.897Z,100825.28
2022-10-17T18:55:25.081Z,100818.31
2022-10-17T18:57:53.791Z,100822.84
2022-10-17T19:00:22.751Z,100819.44
2022-10-17T19:02:51.317Z,100823.06
2022-10-17T19:05:19.909Z,100818.72
2022-10-17T19:07:50.326Z,100824.00
2022-10-17T19:10:19.383Z,100827.50
2022-10-17T19:12:47.888Z,100826.56
2022-10-17T19:15:16.792Z,100831.09
2022-10-17T19:17:45.321Z,100828.72
2022-10-17T19:20:14.040Z,100823.50
2022-10-17T19:22:43.078Z,100832.38
2022-10-17T19:25:14.043Z,100827.19
2022-10-17T19:27:42.600Z,100829.00
2022-10-17T19:30:12.680Z,100828.97
2022-10-17T19:32:41.082Z,100820.31
2022-10-17T19:35:11.738Z,100826.50
2022-10-17T19:37:40.381Z,100816.03
2022-10-17T19:40:11.251Z,100817.81
2022-10-17T19:42:41.736Z,100814.25
2022-10-17T19:45:11.264Z,100821.44
2022-10-17T19:47:39.841Z,100824.16
2022-10-17T19:50:09.277Z,100811.81
2022-10-17T19:52:38.251Z,100811.03
2022-10-17T19:55:07.806Z,100809.34
2022-10-17T19:57:36.606Z,100809.53
2022-10-17T20:00:08.027Z,100814.81
2022-10-17T20:02:39.748Z,100808.78
2022-10-17T20:05:18.555Z,100806.22
2022-10-17T20:07:47.847Z,100804.50
2022-10-17T20:10:18.450Z,100813.31
2022-10-17T20:12:46.918Z,100814.28
2022-10-17T20:15:17.044Z,100806.38
2022-10-17T20:17:45.456Z,100816.06
2022-10-17T20:20:14.371Z,100815.16
2022-10-17T20:22:42.756Z,100815.16
2022-10-17T20:25:11.630Z,100809.88
2022-10-17T20:27:39.976Z,100804.59
2022-10-17T20:30:09.521Z,100806.38
2022-10-17T20:32:39.758Z,100803.72
2022-10-17T20:35:09.393Z,100805.50
2022-10-17T20:37:41.676Z,100805.59
2022-10-17T20:43:00.655Z,100801.16
2022-10-17T20:45:43.746Z,100796.75
2022-10-17T20:48:19.257Z,100802.03
2022-10-17T20:50:47.888Z,100804.75
2022-10-17T20:53:36.987Z,100800.31
2022-10-17T20:56:08.605Z,100791.56
2022-10-17T20:58:37.201Z,100796.03
2022-10-17T21:01:07.639Z,100801.31
2022-10-17T21:03:39.937Z,100803.03
2022-10-17T21:06:11.813Z,100801.31
2022-10-17T21:08:41.299Z,100802.19
2022-10-17T21:11:12.599Z,100810.94
2022-10-17T21:13:41.719Z,100813.59
2022-10-17T21:16:12.061Z,100804.78
2022-10-17T21:18:42.239Z,100803.97
2022-10-17T21:21:13.914Z,100810.09
2022-10-17T21:23:44.211Z,100812.75
2022-10-17T21:26:13.781Z,100802.25
2022-10-17T21:28:43.623Z,100808.44
2022-10-17T21:31:15.422Z,100812.88
2022-10-17T21:33:47.237Z,100809.31
2022-10-17T21:36:17.372Z,100802.38
2022-10-17T21:38:47.262Z,100803.31
2022-10-17T21:41:17.863Z,100801.59
2022-10-17T21:43:46.772Z,100797.19
2022-10-17T21:46:17.340Z,100789.31
2022-10-17T21:48:52.252Z,100796.31
2022-10-17T21:51:26.537Z,100805.13
2022-10-17T21:53:57.587Z,100794.66
2022-10-17T21:56:28.711Z,100793.88
2022-10-17T21:58:57.554Z,100791.28
2022-10-17T22:01:28.120Z,100796.59
2022-10-17T22:04:01.966Z,100788.72
2022-10-17T22:06:39.619Z,100794.88
2022-10-17T22:09:16.535Z,100791.34
2022-10-17T22:11:46.986Z,100789.59
2022-10-17T22:14:22.839Z,100785.22
2022-10-17T22:16:51.797Z,100784.38
2022-10-17T22:19:24.416Z,100786.16
2022-10-17T22:21:53.516Z,100787.06
2022-10-17T22:24:23.305Z,100789.69
2022-10-17T22:26:52.264Z,100787.09
2022-10-17T22:29:21.231Z,100785.34
2022-10-17T22:31:49.900Z,100783.56
2022-10-17T22:34:19.271Z,100782.69
2022-10-17T22:36:49.228Z,100784.44
2022-10-17T22:39:17.752Z,100778.28
2022-10-17T22:41:46.432Z,100782.69
2022-10-17T22:44:14.855Z,100782.69
2022-10-17T22:46:43.613Z,100782.69
2022-10-17T22:49:12.599Z,100773.03
2022-10-17T22:51:41.379Z,100780.94
2022-10-17T22:54:11.113Z,100775.66
2022-10-17T22:56:39.805Z,100766.91
2022-10-17T22:59:08.218Z,100766.94
2022-10-17T23:01:36.894Z,100773.06
2022-10-17T23:04:05.448Z,100772.19
2022-10-17T23:06:34.095Z,100767.81
2022-10-17T23:09:03.252Z,100759.91
2022-10-17T23:11:33.264Z,100759.94
2022-10-17T23:14:01.625Z,100756.41
2022-10-17T23:16:30.495Z,100759.91
2022-10-17T23:18:59.166Z,100762.53
2022-10-17T23:21:27.755Z,100752.91
2022-10-17T23:23:56.235Z,100745.94
2022-10-17T23:26:24.809Z,100750.38
2022-10-17T23:28:56.205Z,100746.84
2022-10-17T23:31:24.826Z,100747.78
2022-10-17T23:33:53.235Z,100747.81
2022-10-17T23:36:22.500Z,100753.94
2022-10-17T23:38:53.720Z,100757.47
2022-10-17T23:41:25.014Z,100758.34
2022-10-17T23:43:53.448Z,100753.97
2022-10-17T23:46:23.655Z,100747.78
2022-10-17T23:48:52.064Z,100746.06
2022-10-17T23:51:20.568Z,100746.06
2022-10-17T23:53:48.996Z,100746.94
2022-10-17T23:56:17.847Z,100754.84
2022-10-17T23:58:46.164Z,100747.81
